createdAt,value
2023-01-29T00:00:10.742Z,-1.60
2023-01-29T00:02:42.703Z,-1.64
2023-01-29T00:05:27.117Z,-1.60
2023-01-29T00:08:00.134Z,-1.46
2023-01-29T00:10:32.234Z,-1.57
2023-01-29T00:13:04.243Z,-1.65
2023-01-29T00:15:36.197Z,-1.77
2023-01-29T00:18:08.414Z,-1.69
2023-01-29T00:20:43.977Z,-1.58
2023-01-29T00:23:15.995Z,-1.69
2023-01-29T00:25:48.271Z,-1.52
2023-01-29T00:28:20.388Z,-1.83
2023-01-29T00:30:52.375Z,-1.73
2023-01-29T00:33:24.558Z,-1.83
2023-01-29T00:35:56.684Z,-1.67
2023-01-29T00:38:28.560Z,-1.63
2023-01-29T00:41:34.283Z,-1.66
2023-01-29T00:44:25.706Z,-1.62
2023-01-29T00:46:57.834Z,-1.94
2023-01-29T00:49:30.752Z,-2.00
2023-01-29T00:52:25.797Z,-1.83
2023-01-29T00:54:59.824Z,-1.69
2023-01-29T00:57:33.630Z,-1.71
2023-01-29T01:00:07.890Z,-1.65
2023-01-29T01:02:58.276Z,-2.23
2023-01-29T01:05:30.496Z,-1.89
2023-01-29T01:08:02.473Z,-1.74
2023-01-29T01:10:34.421Z,-1.75
2023-01-29T01:13:07.595Z,-1.89
2023-01-29T01:15:40.970Z,-1.90
2023-01-29T01:18:15.131Z,-1.72
2023-01-29T01:20:51.879Z,-2.08
2023-01-29T01:23:23.788Z,-2.10
2023-01-29T01:25:55.777Z,-1.74
2023-01-29T01:28:28.365Z,-1.76
2023-01-29T01:31:09.095Z,-1.82
2023-01-29T01:33:41.349Z,-1.79
2023-01-29T01:36:14.356Z,-2.11
2023-01-29T01:38:46.707Z,-2.08
2023-01-29T01:41:21.944Z,-1.94
2023-01-29T01:44:02.239Z,-1.90
2023-01-29T01:46:38.181Z,-1.90
2023-01-29T01:49:18.755Z,-2.01
2023-01-29T01:51:52.990Z,-2.02
2023-01-29T01:54:29.031Z,-1.85
2023-01-29T01:57:09.651Z,-1.80
2023-01-29T01:59:47.022Z,-2.03
2023-01-29T02:02:37.483Z,-1.93
2023-01-29T02:05:31.455Z,-1.89
2023-01-29T02:08:22.211Z,-1.86
2023-01-29T02:10:54.203Z,-1.80
2023-01-29T02:13:27.219Z,-1.77
2023-01-29T02:15:59.223Z,-1.85
2023-01-29T02:18:38.232Z,-2.14
2023-01-29T02:21:35.813Z,-2.05
2023-01-29T02:24:23.025Z,-1.57
2023-01-29T02:27:09.490Z,-1.56
2023-01-29T02:30:00.856Z,-1.52
2023-01-29T02:33:22.522Z,-1.52
2023-01-29T02:35:59.225Z,-1.53
2023-01-29T02:38:53.849Z,-1.73
2023-01-29T02:41:48.742Z,-1.60
2023-01-29T02:44:56.330Z,-1.77
2023-01-29T02:47:37.585Z,-1.75
2023-01-29T02:50:17.181Z,-1.86
2023-01-29T02:53:10.508Z,-1.72
2023-01-29T02:55:53.792Z,-2.03
2023-01-29T02:58:35.373Z,-1.63
2023-01-29T03:01:13.176Z,-1.88
2023-01-29T03:03:51.736Z,-1.76
2023-01-29T03:06:38.843Z,-1.80
2023-01-29T03:09:22.831Z,-1.72
2023-01-29T03:11:59.138Z,-1.95
2023-01-29T03:14:54.088Z,-1.88
2023-01-29T03:17:33.310Z,-1.89
2023-01-29T03:20:14.006Z,-1.85
2023-01-29T03:22:51.937Z,-2.21
2023-01-29T03:25:46.318Z,-2.19
2023-01-29T03:28:38.032Z,-1.77
2023-01-29T03:31:31.296Z,-1.73
2023-01-29T03:34:06.059Z,-1.69
2023-01-29T03:36:46.186Z,-1.84
2023-01-29T03:39:18.409Z,-1.67
2023-01-29T03:42:03.023Z,-1.70
2023-01-29T03:44:48.970Z,-1.64
2023-01-29T03:47:45.794Z,-1.71
2023-01-29T03:50:35.630Z,-1.68
2023-01-29T03:53:16.712Z,-1.69
2023-01-29T03:56:33.291Z,-1.88
2023-01-29T03:59:35.855Z,-1.62
2023-01-29T04:02:16.372Z,-1.78
2023-01-29T04:04:52.320Z,-1.89
2023-01-29T04:07:25.790Z,-1.76
2023-01-29T04:10:07.140Z,-1.85
2023-01-29T04:12:55.383Z,-1.88
2023-01-29T04:15:31.638Z,-1.98
2023-01-29T04:18:03.765Z,-1.84
2023-01-29T04:20:36.362Z,-1.86
2023-01-29T04:23:24.515Z,-2.03
2023-01-29T04:26:14.434Z,-1.66
2023-01-29T04:29:04.447Z,-2.01
2023-01-29T04:31:57.755Z,-1.83
2023-01-29T04:34:53.723Z,-1.73
2023-01-29T04:37:40.568Z,-1.83
2023-01-29T04:40:40.708Z,-1.63
2023-01-29T04:43:27.236Z,-1.81
2023-01-29T04:46:22.250Z,-1.71
2023-01-29T04:49:13.290Z,-1.71
2023-01-29T04:51:55.635Z,-1.94
2023-01-29T04:54:40.134Z,-1.81
2023-01-29T04:57:18.431Z,-1.77
2023-01-29T05:00:17.178Z,-1.85
2023-01-29T05:02:49.772Z,-1.82
2023-01-29T05:05:22.553Z,-1.74
2023-01-29T05:07:57.359Z,-1.75
2023-01-29T05:10:29.635Z,-1.95
2023-01-29T05:13:05.622Z,-1.84
2023-01-29T05:15:46.876Z,-1.90
2023-01-29T05:18:22.194Z,-1.66
2023-01-29T05:20:57.143Z,-1.75
2023-01-29T05:23:29.152Z,-1.77
2023-01-29T05:26:01.435Z,-1.77
2023-01-29T05:28:33.383Z,-1.95
2023-01-29T05:31:05.400Z,-2.07
2023-01-29T05:33:37.334Z,-1.69
2023-01-29T05:36:09.759Z,-1.69
2023-01-29T05:38:41.692Z,-2.02
2023-01-29T05:41:13.673Z,-1.79
2023-01-29T05:43:45.612Z,-1.81
2023-01-29T05:46:17.593Z,-2.02
2023-01-29T05:48:49.620Z,-1.86
2023-01-29T05:51:21.625Z,-2.00
2023-01-29T05:53:54.346Z,-1.75
2023-01-29T05:56:26.278Z,-1.70
2023-01-29T05:58:58.250Z,-1.70
2023-01-29T06:01:30.202Z,-1.88
2023-01-29T06:04:02.301Z,-1.78
2023-01-29T06:06:34.321Z,-2.21
2023-01-29T06:09:06.275Z,-1.69
2023-01-29T06:11:38.779Z,-1.57
2023-01-29T06:14:10.766Z,-1.55
2023-01-29T06:16:42.747Z,-1.75
2023-01-29T06:19:14.740Z,-1.94
2023-01-29T06:21:46.693Z,-1.67
2023-01-29T06:24:18.670Z,-1.75
2023-01-29T06:26:50.712Z,-1.80
2023-01-29T06:29:22.704Z,-2.05
2023-01-29T06:31:54.793Z,-1.82
2023-01-29T06:34:26.846Z,-1.65
2023-01-29T06:36:58.784Z,-1.75
2023-01-29T06:39:30.816Z,-1.74
2023-01-29T06:42:02.848Z,-1.59
2023-01-29T06:44:34.812Z,-1.57
2023-01-29T06:47:06.778Z,-1.66
2023-01-29T06:49:38.686Z,-1.77
2023-01-29T06:52:12.904Z,-1.48
2023-01-29T06:54:45.353Z,-1.65
2023-01-29T06:57:17.348Z,-1.44
2023-01-29T06:59:49.542Z,-1.70
2023-01-29T07:02:21.561Z,-1.90
2023-01-29T07:04:53.511Z,-1.78
2023-01-29T07:07:25.514Z,-1.62
2023-01-29T07:09:57.459Z,-1.53
2023-01-29T07:12:29.521Z,-1.52
2023-01-29T07:15:01.593Z,-1.66
2023-01-29T07:17:33.588Z,-1.62
2023-01-29T07:20:06.517Z,-1.26
2023-01-29T07:22:38.515Z,-1.23
2023-01-29T07:25:10.555Z,-1.10
2023-01-29T07:27:42.479Z,-1.20
2023-01-29T07:30:15.063Z,-1.20
2023-01-29T07:32:47.108Z,-1.01
2023-01-29T07:35:19.106Z,-0.95
2023-01-29T07:37:51.742Z,-1.10
2023-01-29T07:40:24.135Z,-1.06
2023-01-29T07:43:04.983Z,-1.01
2023-01-29T07:45:39.228Z,-1.06
2023-01-29T07:48:13.653Z,-1.00
2023-01-29T07:50:46.330Z,-1.20
2023-01-29T07:53:18.335Z,-1.05
2023-01-29T07:55:50.619Z,-1.00
2023-01-29T07:58:22.674Z,-1.00
2023-01-29T08:00:54.680Z,-1.85
2023-01-29T08:03:31.704Z,-1.07
2023-01-29T08:06:05.006Z,-1.15
2023-01-29T08:08:37.004Z,-1.10
2023-01-29T08:11:09.002Z,-1.07
2023-01-29T08:13:40.982Z,-0.97
2023-01-29T08:16:12.979Z,-0.91
2023-01-29T08:18:48.110Z,-0.86
2023-01-29T08:21:20.088Z,-0.92
2023-01-29T08:23:52.020Z,-0.97
2023-01-29T08:26:24.059Z,-1.20
2023-01-29T08:28:55.992Z,-0.73
2023-01-29T08:31:28.040Z,-0.54
2023-01-29T08:34:00.162Z,-0.89
2023-01-29T08:36:32.143Z,-0.80
2023-01-29T08:39:04.259Z,-0.96
2023-01-29T08:41:36.217Z,-0.87
2023-01-29T08:44:08.210Z,-0.74
2023-01-29T08:46:41.180Z,-0.66
2023-01-29T08:49:13.167Z,-0.86
2023-01-29T08:51:45.107Z,-0.59
2023-01-29T08:54:17.283Z,-0.73
2023-01-29T08:56:49.467Z,-0.74
2023-01-29T08:59:23.182Z,-0.80
2023-01-29T09:01:55.105Z,-0.53
2023-01-29T09:04:27.104Z,-0.42
2023-01-29T09:06:59.110Z,-0.67
2023-01-29T09:09:31.036Z,-0.57
2023-01-29T09:12:03.003Z,-0.65
2023-01-29T09:14:34.913Z,-0.83
2023-01-29T09:17:06.890Z,-0.73
2023-01-29T09:19:38.821Z,-1.12
2023-01-29T09:22:11.896Z,-0.53
2023-01-29T09:24:44.001Z,-0.75
2023-01-29T09:27:15.963Z,-0.40
2023-01-29T09:29:47.960Z,-0.50
2023-01-29T09:32:49.836Z,-0.47
2023-01-29T09:35:11.839Z,-0.43
2023-01-29T09:37:43.771Z,-0.13
2023-01-29T09:40:39.476Z,-0.27
2023-01-29T09:43:19.211Z,-0.03
2023-01-29T09:46:00.774Z,0.04
2023-01-29T09:48:36.764Z,0.00
2023-01-29T09:51:22.302Z,0.21
2023-01-29T09:54:19.131Z,0.13
2023-01-29T09:56:56.006Z,-0.17
2023-01-29T09:59:31.467Z,0.11
2023-01-29T10:02:20.110Z,-0.01
2023-01-29T10:05:10.610Z,0.01
2023-01-29T10:08:21.108Z,0.14
2023-01-29T10:11:20.237Z,0.04
2023-01-29T10:14:31.494Z,0.30
2023-01-29T10:17:30.444Z,0.35
2023-01-29T10:20:14.445Z,0.25
2023-01-29T10:23:12.656Z,0.32
2023-01-29T10:25:46.162Z,0.28
2023-01-29T10:28:28.610Z,0.66
2023-01-29T10:31:09.279Z,0.58
2023-01-29T10:33:49.344Z,0.31
2023-01-29T10:36:57.608Z,0.11
2023-01-29T10:39:31.318Z,0.04
2023-01-29T10:42:28.268Z,0.39
2023-01-29T10:45:17.386Z,0.27
2023-01-29T10:48:06.463Z,0.31
2023-01-29T10:50:44.551Z,0.50
2023-01-29T10:53:53.866Z,0.27
2023-01-29T10:56:50.944Z,0.11
2023-01-29T10:59:42.961Z,0.47
2023-01-29T11:02:18.892Z,0.35
2023-01-29T11:04:50.851Z,0.39
2023-01-29T11:07:23.848Z,0.15
2023-01-29T11:10:03.341Z,0.37
2023-01-29T11:12:38.562Z,0.24
2023-01-29T11:15:32.499Z,0.19
2023-01-29T11:18:15.957Z,0.26
2023-01-29T11:21:02.292Z,0.24
2023-01-29T11:23:34.500Z,0.46
2023-01-29T11:26:09.660Z,0.40
2023-01-29T11:28:47.062Z,0.25
2023-01-29T11:31:30.382Z,0.51
2023-01-29T11:34:06.743Z,0.43
2023-01-29T11:36:39.618Z,0.47
2023-01-29T11:39:22.717Z,0.63
2023-01-29T11:42:01.813Z,0.46
2023-01-29T11:44:38.973Z,0.18
2023-01-29T11:47:17.671Z,0.55
2023-01-29T11:49:54.530Z,0.60
2023-01-29T11:52:35.617Z,0.68
2023-01-29T11:55:17.661Z,0.61
2023-01-29T11:58:30.538Z,0.41
2023-01-29T12:01:03.297Z,0.34
2023-01-29T12:03:36.633Z,0.19
2023-01-29T12:06:20.236Z,0.55
2023-01-29T12:09:02.231Z,0.58
2023-01-29T12:11:35.846Z,0.58
2023-01-29T12:14:24.385Z,0.36
2023-01-29T12:17:17.700Z,0.36
2023-01-29T12:19:56.817Z,0.29
2023-01-29T12:22:43.859Z,0.59
2023-01-29T12:25:22.867Z,0.68
2023-01-29T12:28:13.366Z,0.31
2023-01-29T12:31:08.997Z,0.19
2023-01-29T12:33:54.593Z,0.53
2023-01-29T12:36:29.255Z,0.63
2023-01-29T12:39:01.254Z,0.46
2023-01-29T12:41:36.807Z,0.77
2023-01-29T12:44:33.752Z,0.49
2023-01-29T12:47:08.477Z,0.20
2023-01-29T12:49:44.074Z,0.43
2023-01-29T12:52:21.416Z,0.52
2023-01-29T12:55:28.181Z,0.45
2023-01-29T12:58:25.696Z,0.07
2023-01-29T13:01:05.679Z,0.28
2023-01-29T13:03:40.463Z,0.29
2023-01-29T13:06:16.189Z,0.15
2023-01-29T13:08:56.071Z,0.15
2023-01-29T13:11:42.277Z,0.36
2023-01-29T13:14:41.435Z,0.06
2023-01-29T13:17:38.091Z,0.26
2023-01-29T13:20:29.141Z,0.01
2023-01-29T13:23:19.540Z,0.15
2023-01-29T13:25:55.088Z,-0.12
2023-01-29T13:28:28.277Z,-0.06
2023-01-29T13:31:23.707Z,0.03
2023-01-29T13:34:18.322Z,0.10
2023-01-29T13:37:03.258Z,-0.16
2023-01-29T13:39:44.979Z,-0.18
2023-01-29T13:42:23.756Z,-0.25
2023-01-29T13:45:03.230Z,-0.29
2023-01-29T13:47:38.962Z,-0.28
2023-01-29T13:50:18.900Z,-0.38
2023-01-29T13:52:58.409Z,-0.28
2023-01-29T13:55:33.301Z,-0.36
2023-01-29T13:58:38.433Z,-0.50
2023-01-29T14:01:10.464Z,-0.28
2023-01-29T14:04:04.223Z,-0.02
2023-01-29T14:06:40.699Z,-0.05
2023-01-29T14:09:44.817Z,-0.07
2023-01-29T14:12:22.814Z,-0.22
2023-01-29T14:14:57.774Z,-0.26
2023-01-29T14:17:30.378Z,-0.98
2023-01-29T14:20:16.793Z,-0.46
2023-01-29T14:22:58.061Z,-0.42
2023-01-29T14:25:37.552Z,-0.51
2023-01-29T14:28:20.331Z,-0.29
2023-01-29T14:30:53.096Z,-0.47
2023-01-29T14:33:44.759Z,-0.52
2023-01-29T14:36:17.077Z,-0.73
2023-01-29T14:38:52.543Z,-0.45
2023-01-29T14:41:25.606Z,-0.62
2023-01-29T14:44:35.226Z,-0.59
2023-01-29T14:47:18.723Z,-0.78
2023-01-29T14:49:56.524Z,-0.46
2023-01-29T14:52:43.527Z,-0.61
2023-01-29T14:55:36.141Z,-0.58
2023-01-29T14:58:15.030Z,-0.61
2023-01-29T15:00:53.305Z,-0.60
2023-01-29T15:03:40.279Z,-0.40
2023-01-29T15:06:19.533Z,-0.28
2023-01-29T15:09:01.271Z,-0.43
2023-01-29T15:11:41.106Z,-0.36
2023-01-29T15:14:17.092Z,-0.41
2023-01-29T15:17:01.433Z,-0.58
2023-01-29T15:19:45.000Z,-0.49
2023-01-29T15:22:22.341Z,-0.61
2023-01-29T15:25:13.371Z,-0.59
2023-01-29T15:27:46.347Z,-0.76
2023-01-29T15:30:27.550Z,-0.58
2023-01-29T15:33:00.970Z,-1.13
2023-01-29T15:35:39.359Z,-0.73
2023-01-29T15:38:18.937Z,-0.81
2023-01-29T15:40:57.006Z,-0.81
2023-01-29T15:43:37.112Z,-0.78
2023-01-29T15:46:25.619Z,-0.69
2023-01-29T15:49:01.773Z,-0.68
2023-01-29T15:51:34.297Z,-0.77
2023-01-29T15:54:15.497Z,-0.59
2023-01-29T15:56:51.570Z,-0.88
2023-01-29T15:59:27.487Z,-0.60
2023-01-29T16:01:59.520Z,-1.29
2023-01-29T16:04:32.121Z,-0.71
2023-01-29T16:07:04.719Z,-0.64
2023-01-29T16:09:37.088Z,-0.57
2023-01-29T16:12:13.008Z,-0.64
2023-01-29T16:14:45.481Z,-0.69
2023-01-29T16:17:41.090Z,-0.58
2023-01-29T16:20:44.042Z,-0.71
2023-01-29T16:23:31.275Z,-0.61
2023-01-29T16:26:07.708Z,-1.28
2023-01-29T16:28:45.091Z,-0.66
2023-01-29T16:31:32.327Z,-0.56
2023-01-29T16:34:15.275Z,-0.55
2023-01-29T16:36:48.591Z,-0.77
2023-01-29T16:39:28.110Z,-0.83
2023-01-29T16:42:20.313Z,-0.56
2023-01-29T16:45:03.663Z,-0.62
2023-01-29T16:47:41.748Z,-0.64
2023-01-29T16:50:38.290Z,-0.62
2023-01-29T16:53:24.924Z,-0.97
2023-01-29T16:56:04.601Z,-0.82
2023-01-29T16:58:37.237Z,-0.68
2023-01-29T17:01:11.756Z,-0.80
2023-01-29T17:03:44.072Z,-0.94
2023-01-29T17:06:23.913Z,-0.79
2023-01-29T17:08:56.180Z,-0.96
2023-01-29T17:11:38.913Z,-0.90
2023-01-29T17:14:19.458Z,-0.89
2023-01-29T17:16:55.416Z,-1.01
2023-01-29T17:19:28.115Z,-0.69
2023-01-29T17:22:00.496Z,-0.76
2023-01-29T17:24:32.420Z,-0.92
2023-01-29T17:27:04.445Z,-1.13
2023-01-29T17:29:39.383Z,-0.67
2023-01-29T17:32:11.892Z,-1.13
2023-01-29T17:34:44.118Z,-0.74
2023-01-29T17:37:16.818Z,-0.68
2023-01-29T17:39:50.999Z,-0.69
2023-01-29T17:42:23.057Z,-0.67
2023-01-29T17:44:55.087Z,-0.83
2023-01-29T17:47:27.383Z,-0.69
2023-01-29T17:50:00.199Z,-0.73
2023-01-29T17:52:33.225Z,-0.65
2023-01-29T17:55:05.666Z,-0.79
2023-01-29T17:57:37.655Z,-0.77
2023-01-29T18:00:21.965Z,-0.59
2023-01-29T18:02:54.731Z,-0.68
2023-01-29T18:05:26.642Z,-0.67
2023-01-29T18:07:58.660Z,-0.68
2023-01-29T18:10:30.604Z,-0.52
2023-01-29T18:13:02.536Z,-0.57
2023-01-29T18:15:34.499Z,-0.77
2023-01-29T18:18:06.919Z,-0.47
2023-01-29T18:20:40.211Z,-0.85
2023-01-29T18:23:12.908Z,-0.64
2023-01-29T18:25:45.495Z,-0.57
2023-01-29T18:28:20.959Z,-0.50
2023-01-29T18:30:53.222Z,-0.55
2023-01-29T18:33:26.237Z,-0.72
2023-01-29T18:35:58.757Z,-0.76
2023-01-29T18:38:33.421Z,-0.87
2023-01-29T18:41:11.109Z,-0.59
2023-01-29T18:43:43.558Z,-0.86
2023-01-29T18:46:15.641Z,-0.87
2023-01-29T18:48:47.598Z,-0.88
2023-01-29T18:51:19.519Z,-0.65
2023-01-29T18:53:52.465Z,-0.80
2023-01-29T18:56:24.393Z,-0.66
2023-01-29T18:58:56.579Z,-0.62
2023-01-29T19:01:28.629Z,-0.77
2023-01-29T19:04:02.106Z,-0.75
2023-01-29T19:06:37.090Z,-0.57
2023-01-29T19:09:09.725Z,-0.52
2023-01-29T19:11:41.696Z,-0.51
2023-01-29T19:14:13.680Z,-0.77
2023-01-29T19:16:45.620Z,-0.67
2023-01-29T19:19:18.047Z,-1.05
2023-01-29T19:21:53.836Z,-0.60
2023-01-29T19:24:26.135Z,-0.66
2023-01-29T19:26:58.137Z,-1.02
2023-01-29T19:29:30.098Z,-0.64
2023-01-29T19:32:02.423Z,-0.79
2023-01-29T19:34:34.642Z,-0.68
2023-01-29T19:37:06.645Z,-0.70
2023-01-29T19:39:38.606Z,-0.56
2023-01-29T19:42:10.496Z,-0.67
2023-01-29T19:44:42.560Z,-1.00
2023-01-29T19:47:14.668Z,-0.76
2023-01-29T19:49:47.196Z,-0.51
2023-01-29T19:52:50.715Z,-0.79
2023-01-29T19:55:23.556Z,-0.51
2023-01-29T19:57:57.434Z,-0.47
2023-01-29T20:00:29.441Z,-0.63
2023-01-29T20:03:01.455Z,-0.70
2023-01-29T20:05:36.150Z,-0.50
2023-01-29T20:08:08.114Z,-0.62
2023-01-29T20:10:40.094Z,-0.62
2023-01-29T20:13:12.810Z,-0.57
2023-01-29T20:15:49.593Z,-0.67
2023-01-29T20:18:21.736Z,-0.86
2023-01-29T20:20:53.685Z,-0.73
2023-01-29T20:23:37.022Z,-0.80
2023-01-29T20:26:14.688Z,-0.62
2023-01-29T20:28:48.217Z,-0.62
2023-01-29T20:31:20.232Z,-0.68
2023-01-29T20:33:52.387Z,-0.92
2023-01-29T20:36:24.334Z,-0.78
2023-01-29T20:38:56.426Z,-0.71
2023-01-29T20:41:28.402Z,-0.79
2023-01-29T20:44:00.456Z,-0.79
2023-01-29T20:46:32.796Z,-0.81
2023-01-29T20:49:07.216Z,-0.72
2023-01-29T20:51:39.221Z,-0.86
2023-01-29T20:54:13.029Z,-0.72
2023-01-29T20:56:46.851Z,-0.75
2023-01-29T20:59:20.323Z,-0.58
2023-01-29T21:01:52.302Z,-0.59
2023-01-29T21:04:24.361Z,-0.55
2023-01-29T21:06:56.349Z,-0.49
2023-01-29T21:09:28.302Z,-0.61
2023-01-29T21:12:00.593Z,-0.54
2023-01-29T21:14:33.066Z,-0.57
2023-01-29T21:17:05.309Z,-0.56
2023-01-29T21:19:37.417Z,-0.45
2023-01-29T21:22:09.264Z,-0.47
2023-01-29T21:24:41.293Z,-0.58
2023-01-29T21:27:13.254Z,-0.54
2023-01-29T21:29:45.203Z,-0.50
2023-01-29T21:32:18.552Z,-0.81
2023-01-29T21:34:52.492Z,-0.47
2023-01-29T21:37:24.656Z,-0.52
2023-01-29T21:39:56.572Z,-0.39
2023-01-29T21:42:47.216Z,-0.36
2023-01-29T21:45:20.402Z,-0.24
2023-01-29T21:47:52.402Z,-0.39
2023-01-29T21:50:24.407Z,-0.49
2023-01-29T21:52:56.379Z,-0.39
2023-01-29T21:55:28.452Z,-0.47
2023-01-29T21:58:00.861Z,-0.42
2023-01-29T22:00:33.079Z,-0.38
2023-01-29T22:03:05.189Z,-0.42
2023-01-29T22:05:37.271Z,-0.52
2023-01-29T22:08:09.969Z,-0.37
2023-01-29T22:10:42.133Z,-0.31
2023-01-29T22:13:14.232Z,-0.33
2023-01-29T22:15:46.212Z,-0.56
2023-01-29T22:18:18.245Z,-0.44
2023-01-29T22:20:54.487Z,-0.40
2023-01-29T22:23:26.420Z,-0.51
2023-01-29T22:26:05.875Z,-0.33
2023-01-29T22:28:37.772Z,-0.57
2023-01-29T22:31:09.973Z,-0.40
2023-01-29T22:33:41.924Z,-0.44
2023-01-29T22:36:13.856Z,-0.62
2023-01-29T22:38:46.934Z,-0.40
2023-01-29T22:41:18.780Z,-0.58
2023-01-29T22:43:50.738Z,-0.33
2023-01-29T22:46:22.684Z,-0.43
2023-01-29T22:48:55.131Z,-0.37
2023-01-29T22:51:27.115Z,-0.44
2023-01-29T22:53:59.102Z,-0.23
2023-01-29T22:56:31.506Z,-0.47
2023-01-29T22:59:03.597Z,-0.15
2023-01-29T23:01:35.644Z,-0.37
2023-01-29T23:04:07.612Z,-0.31
2023-01-29T23:06:39.561Z,-0.76
2023-01-29T23:09:11.529Z,-0.49
2023-01-29T23:11:43.475Z,-0.28
2023-01-29T23:14:15.414Z,-0.24
2023-01-29T23:16:47.521Z,-0.13
2023-01-29T23:19:19.557Z,-0.29
2023-01-29T23:21:51.446Z,-0.60
2023-01-29T23:24:23.479Z,-0.25
2023-01-29T23:27:14.075Z,-0.21
2023-01-29T23:29:47.785Z,-0.21
2023-01-29T23:32:21.218Z,-0.15
2023-01-29T23:34:53.342Z,-0.23
2023-01-29T23:37:25.754Z,-0.29
2023-01-29T23:39:57.726Z,-0.48
2023-01-29T23:42:29.689Z,-0.29
2023-01-29T23:45:01.688Z,-0.06
2023-01-29T23:47:33.559Z,-0.11
2023-01-29T23:50:05.944Z,-0.08
2023-01-29T23:52:39.120Z,-0.26
2023-01-29T23:55:11.096Z,-0.22
2023-01-29T23:57:43.008Z,-0.27
